Home > Products > Valid Products > TAF

000
FTUS46 KMFR 281738
TAFOTH
TAF
KOTH 281738Z 2818/2918 34008KT P6SM SKC
     FM282000 34015G22KT P6SM SKC
     FM290300 34008KT P6SM SKC
     FM290600 34005KT P6SM OVC020=



000
FTUS46 KMFR 281738
TAFMFR
TAF
KMFR 281738Z 2818/2918 32005KT P6SM SKC
     FM282300 32010G15KT P6SM SKC
     FM290300 VRB03KT P6SM SKC=



000
FTUS46 KMFR 281738
TAFLMT
TAF
KLMT 281738Z 2818/2918 29006KT P6SM SKC
     FM282300 33010G16KT P6SM SKC
     FM290400 32005KT P6SM SKC=



000
FTUS46 KMFR 281738
TAFRBG
TAF
KRBG 281738Z 2818/2918 35006KT P6SM SKC
     FM282200 36008G14KT P6SM FEW050
     FM290300 36005KT P6SM SKC=



000
FTUS46 KMFR 281150
TAFRBG
TAF
KRBG 281150Z 2812/2912 35006KT P6SM SKC
     FM282200 36008G14KT P6SM FEW050
     FM290300 36003KT P6SM SKC=



000
FTUS46 KMFR 281150
TAFMFR
TAF
KMFR 281150Z 2812/2912 VRB03KT P6SM SKC
     FM282200 32010G15KT P6SM SKC
     FM290300 VRB02KT P6SM SKC=



000
FTUS46 KMFR 281150
TAFOTH
TAF
KOTH 281150Z 2812/2912 15003KT P6SM FEW012
     FM281600 34008KT P6SM SKC
     FM282000 34015G22KT P6SM SKC
     FM290300 34008KT P6SM OVC020=



000
FTUS46 KMFR 281150
TAFLMT
TAF
KLMT 281150Z 2812/2912 29006KT P6SM SKC
     FM282100 33010G16KT P6SM SKC
     FM290300 32005KT P6SM SKC=



000
FTUS46 KMFR 280001 AAA
TAFMFR
TAF AMD
KMFR 280001Z 2800/2824 34012KT P6SM FEW070
     FM280500 VRB03KT P6SM SKC
     FM282200 32010KT P6SM SKC=



000
FTUS46 KMFR 272340
TAFOTH
TAF
KOTH 272340Z 2800/2824 35015G25KT P6SM SKC
     FM280300 36008KT P6SM SKC
     FM281000 12003KT P6SM FEW012 SCT070
     FM281600 34008KT P6SM SKC
     FM282000 34015G22KT P6SM SKC=



000
FTUS46 KMFR 272340
TAFRBG
TAF
KRBG 272340Z 2800/2824 36010G16KT P6SM FEW050
     FM280400 VRB03KT P6SM SCT070
     FM282200 36008G14KT P6SM FEW050=



000
FTUS46 KMFR 272340
TAFLMT
TAF
KLMT 272340Z 2800/2824 32012G22KT P6SM FEW040
     FM280500 35008KT P6SM SKC
     FM281000 VRB03KT P6SM SKC=



000
FTUS46 KMFR 272340
TAFMFR
TAF
KMFR 272340Z 2800/2824 33009KT P6SM FEW070
     FM280500 VRB03KT P6SM SKC
     FM282200 32008KT P6SM SKC=



000
FTUS46 KMFR 270914 AAA
TAFOTH
TAF AMD
KOTH 270914Z 2709/2806 03004KT P6SM FEW015 OVC040
     FM271800 35012G20KT P6SM SCT050
     FM272100 35014G25KT P6SM SKC
     FM280300 36010KT P6SM SKC=



000
FTUS46 KMFR 262348
TAFMFR
TAF
KMFR 262348Z 2700/2724 32011G19KT P6SM FEW040
     FM270400 VRB03KT P6SM SKC
     FM270900 00000KT P6SM SCT035
     FM271900 32009KT P6SM FEW070=



000
FTUS46 KMFR 262348
TAFLMT
TAF
KLMT 262348Z 2700/2724 32015G22KT P6SM SKC
     FM270500 28005KT P6SM SKC
      TEMPO 2711/2713 2SM BR BCFG SCT002
     FM272100 30010G17KT P6SM FEW070=



000
FTUS46 KMFR 262348
TAFRBG
TAF
KRBG 262348Z 2700/2724 36009G17KT P6SM SCT040 BKN050
     FM270400 34007KT P6SM FEW025 BKN050
     FM270900 VRB02KT P6SM FEW015 BKN025 BKN040
     FM271600 36004KT P6SM SCT020 BKN035
     FM271900 36008KT P6SM SCT050=



000
FTUS46 KMFR 262348
TAFOTH
TAF
KOTH 262348Z 2700/2724 36016G24KT P6SM SCT050
     FM270600 02007KT P6SM SCT025 BKN050
     FM271900 34013G19KT P6SM SCT035=



000
FTUS46 KMFR 261525 AAA
TAFRBG
TAF AMD
KRBG 261525Z 2615/2712 35006KT P6SM OVC020
     FM262100 36010KT P6SM SCT040
     FM270300 VRB03KT P6SM BKN040=



000
FTUS46 KMFR 261453 AAC
TAFLMT
TAF AMD
KLMT 261453Z 2615/2712 VRB03KT P6SM SKC
     FM261700 31006KT P6SM SCT150
     FM262200 33012G20KT P6SM SKC
     FM270500 VRB03KT P6SM SKC=



000
FTUS46 KMFR 261309 AAB
TAFLMT
TAF AMD
KLMT 261309Z 2613/2712 VRB03KT 3SM BR SCT002
      TEMPO 2613/2617 1SM BR OVC002
     FM261700 31006KT P6SM SCT150
     FM262200 33012G20KT P6SM SKC
     FM270500 VRB03KT P6SM SKC=



000
FTUS46 KMFR 261155 AAA
TAFLMT
TAF AMD
KLMT 261155Z 2612/2712 VRB03KT 1/4SM FG VV002
     FM261700 31006KT P6SM SCT150
     FM262200 33012G20KT P6SM SKC
     FM270500 VRB03KT P6SM SKC=



000
FTUS46 KMFR 261141 CCA
TAFLMT
TAF COR
KLMT 261141Z 2612/2712 VRB03KT 1SM BR SCT150
     FM261700 31006KT P6SM SCT150
     FM262200 33012G20KT P6SM SKC
     FM270500 VRB03KT P6SM SKC=



000
FTUS46 KMFR 260520
TAFLMT
TAF
KLMT 260520Z 2606/2706 VRB03KT P6SM SCT050
     FM262200 33012G20KT P6SM SKC
     FM270500 VRB03KT P6SM SKC=



000
FTUS46 KMFR 260520
TAFOTH
TAF
KOTH 260520Z 2606/2706 36007KT P6SM SCT030
     FM260800 14004KT P6SM OVC025
     FM261800 32008KT P6SM SCT025 BKN040
     FM262000 35018G30KT P6SM SCT040
     FM270300 36010KT P6SM BKN040=



000
FTUS46 KMFR 260520
TAFMFR
TAF
KMFR 260520Z 2606/2706 VRB03KT P6SM SCT040
     FM260800 00000KT P6SM BKN040
     FM261800 VRB03KT P6SM SCT040
     FM262200 32010KT P6SM SKC
     FM270400 VRB03KT P6SM SKC=



000
FTUS46 KMFR 260520
TAFRBG
TAF
KRBG 260520Z 2606/2706 VRB03KT P6SM OVC040
     FM262100 36010KT P6SM SCT040
     FM270300 VRB03KT P6SM BKN040=



    US Dept of Commerce
    National Oceanic and Atmospheric Administration
    National Weather Service
    1325 East West Highway
    Silver Spring, MD 20910
    Page Author: NWS Internet Services Team
Disclaimer
Information Quality
Credits
Glossary
Privacy Policy
Freedom of Information Act (FOIA)
About Us
Career Opportunities